sensor_id;sensor_type;location;lat;lon;timestamp;P1;durP1;ratioP1;P2;durP2;ratioP2
58992;SDS011;44782;0.000;0.000;2023-06-19T00:00:03;2.35;;;1.70;;
58992;SDS011;44782;0.000;0.000;2023-06-19T00:02:27;1.60;;;1.50;;
58992;SDS011;44782;0.000;0.000;2023-06-19T00:04:43;1.65;;;1.55;;
58992;SDS011;44782;0.000;0.000;2023-06-19T00:06:59;1.90;;;1.63;;
58992;SDS011;44782;0.000;0.000;2023-06-19T00:09:16;1.90;;;1.80;;
58992;SDS011;44782;0.000;0.000;2023-06-19T00:11:32;1.90;;;1.60;;
58992;SDS011;44782;0.000;0.000;2023-06-19T00:13:48;1.70;;;1.60;;
58992;SDS011;44782;0.000;0.000;2023-06-19T00:16:07;1.45;;;1.35;;
58992;SDS011;44782;0.000;0.000;2023-06-19T00:18:23;2.00;;;1.70;;
58992;SDS011;44782;0.000;0.000;2023-06-19T00:20:38;1.83;;;1.70;;
58992;SDS011;44782;0.000;0.000;2023-06-19T00:22:54;1.55;;;1.45;;
58992;SDS011;44782;0.000;0.000;2023-06-19T00:25:10;1.75;;;1.50;;
58992;SDS011;44782;0.000;0.000;2023-06-19T00:27:25;2.17;;;1.48;;
58992;SDS011;44782;0.000;0.000;2023-06-19T00:29:41;2.22;;;1.73;;
58992;SDS011;44782;0.000;0.000;2023-06-19T00:31:57;1.70;;;1.60;;
58992;SDS011;44782;0.000;0.000;2023-06-19T00:34:13;1.80;;;1.50;;
58992;SDS011;44782;0.000;0.000;2023-06-19T00:36:29;1.60;;;1.50;;
58992;SDS011;44782;0.000;0.000;2023-06-19T00:38:45;3.63;;;1.55;;
58992;SDS011;44782;0.000;0.000;2023-06-19T00:41:01;1.67;;;1.58;;
58992;SDS011;44782;0.000;0.000;2023-06-19T00:43:17;1.55;;;1.45;;
58992;SDS011;44782;0.000;0.000;2023-06-19T00:45:33;1.70;;;1.60;;
58992;SDS011;44782;0.000;0.000;2023-06-19T00:47:53;1.60;;;1.50;;
58992;SDS011;44782;0.000;0.000;2023-06-19T00:50:09;1.70;;;1.60;;
58992;SDS011;44782;0.000;0.000;2023-06-19T00:52:26;2.70;;;1.70;;
58992;SDS011;44782;0.000;0.000;2023-06-19T00:54:41;2.10;;;2.00;;
58992;SDS011;44782;0.000;0.000;2023-06-19T00:56:57;2.33;;;1.60;;
58992;SDS011;44782;0.000;0.000;2023-06-19T00:59:15;2.03;;;1.60;;
58992;SDS011;44782;0.000;0.000;2023-06-19T01:01:32;1.65;;;1.50;;
58992;SDS011;44782;0.000;0.000;2023-06-19T01:03:48;1.80;;;1.70;;
58992;SDS011;44782;0.000;0.000;2023-06-19T01:06:13;2.15;;;1.98;;
58992;SDS011;44782;0.000;0.000;2023-06-19T01:08:43;1.80;;;1.70;;
58992;SDS011;44782;0.000;0.000;2023-06-19T01:11:03;1.70;;;1.60;;
58992;SDS011;44782;0.000;0.000;2023-06-19T01:16:11;2.10;;;2.00;;
58992;SDS011;44782;0.000;0.000;2023-06-19T01:18:27;1.80;;;1.70;;
58992;SDS011;44782;0.000;0.000;2023-06-19T01:20:44;1.90;;;1.80;;
58992;SDS011;44782;0.000;0.000;2023-06-19T01:23:09;1.92;;;1.80;;
58992;SDS011;44782;0.000;0.000;2023-06-19T01:25:26;1.88;;;1.77;;
58992;SDS011;44782;0.000;0.000;2023-06-19T01:27:42;2.15;;;1.67;;
58992;SDS011;44782;0.000;0.000;2023-06-19T01:29:58;1.98;;;1.88;;
58992;SDS011;44782;0.000;0.000;2023-06-19T01:32:18;1.98;;;1.80;;
58992;SDS011;44782;0.000;0.000;2023-06-19T01:34:40;2.28;;;1.80;;
58992;SDS011;44782;0.000;0.000;2023-06-19T01:36:57;1.90;;;1.80;;
58992;SDS011;44782;0.000;0.000;2023-06-19T01:39:14;2.13;;;1.80;;
58992;SDS011;44782;0.000;0.000;2023-06-19T01:41:32;1.70;;;1.60;;
58992;SDS011;44782;0.000;0.000;2023-06-19T01:43:49;1.80;;;1.70;;
58992;SDS011;44782;0.000;0.000;2023-06-19T01:46:05;2.53;;;1.98;;
58992;SDS011;44782;0.000;0.000;2023-06-19T01:48:21;3.63;;;1.73;;
58992;SDS011;44782;0.000;0.000;2023-06-19T01:50:37;1.75;;;1.65;;
58992;SDS011;44782;0.000;0.000;2023-06-19T01:52:53;2.10;;;1.90;;
58992;SDS011;44782;0.000;0.000;2023-06-19T01:55:08;2.00;;;1.90;;
58992;SDS011;44782;0.000;0.000;2023-06-19T01:57:27;1.88;;;1.77;;
58992;SDS011;44782;0.000;0.000;2023-06-19T01:59:42;2.00;;;1.80;;
58992;SDS011;44782;0.000;0.000;2023-06-19T02:01:58;2.03;;;1.73;;
58992;SDS011;44782;0.000;0.000;2023-06-19T02:04:14;2.95;;;1.85;;
58992;SDS011;44782;0.000;0.000;2023-06-19T02:06:30;1.90;;;1.80;;
58992;SDS011;44782;0.000;0.000;2023-06-19T02:08:45;1.92;;;1.75;;
58992;SDS011;44782;0.000;0.000;2023-06-19T02:11:01;2.05;;;1.85;;
58992;SDS011;44782;0.000;0.000;2023-06-19T02:13:16;2.67;;;2.00;;
58992;SDS011;44782;0.000;0.000;2023-06-19T02:15:32;2.08;;;1.85;;
58992;SDS011;44782;0.000;0.000;2023-06-19T02:17:48;1.90;;;1.80;;
58992;SDS011;44782;0.000;0.000;2023-06-19T02:20:04;2.05;;;1.85;;
58992;SDS011;44782;0.000;0.000;2023-06-19T02:22:23;1.90;;;1.80;;
58992;SDS011;44782;0.000;0.000;2023-06-19T02:24:39;2.50;;;1.95;;
58992;SDS011;44782;0.000;0.000;2023-06-19T02:26:55;1.90;;;1.80;;
58992;SDS011;44782;0.000;0.000;2023-06-19T02:29:10;2.25;;;1.75;;
58992;SDS011;44782;0.000;0.000;2023-06-19T02:31:26;3.05;;;1.90;;
58992;SDS011;44782;0.000;0.000;2023-06-19T02:33:41;1.77;;;1.67;;
58992;SDS011;44782;0.000;0.000;2023-06-19T02:35:57;1.92;;;1.83;;
58992;SDS011;44782;0.000;0.000;2023-06-19T02:38:14;2.63;;;1.70;;
58992;SDS011;44782;0.000;0.000;2023-06-19T02:40:29;2.03;;;1.83;;
58992;SDS011;44782;0.000;0.000;2023-06-19T02:42:45;2.00;;;1.80;;
58992;SDS011;44782;0.000;0.000;2023-06-19T02:45:01;1.83;;;1.70;;
58992;SDS011;44782;0.000;0.000;2023-06-19T02:47:22;2.05;;;1.90;;
58992;SDS011;44782;0.000;0.000;2023-06-19T02:49:38;2.05;;;1.85;;
58992;SDS011;44782;0.000;0.000;2023-06-19T02:51:53;1.95;;;1.85;;
58992;SDS011;44782;0.000;0.000;2023-06-19T02:54:10;1.90;;;1.80;;
58992;SDS011;44782;0.000;0.000;2023-06-19T02:56:26;2.13;;;1.88;;
58992;SDS011;44782;0.000;0.000;2023-06-19T02:58:43;1.75;;;1.65;;
58992;SDS011;44782;0.000;0.000;2023-06-19T03:00:59;2.35;;;2.15;;
58992;SDS011;44782;0.000;0.000;2023-06-19T03:03:15;2.05;;;1.95;;
58992;SDS011;44782;0.000;0.000;2023-06-19T03:05:30;1.75;;;1.65;;
58992;SDS011;44782;0.000;0.000;2023-06-19T03:07:46;3.28;;;2.20;;
58992;SDS011;44782;0.000;0.000;2023-06-19T03:10:02;2.22;;;1.80;;
58992;SDS011;44782;0.000;0.000;2023-06-19T03:12:17;2.00;;;1.50;;
58992;SDS011;44782;0.000;0.000;2023-06-19T03:14:33;1.88;;;1.77;;
58992;SDS011;44782;0.000;0.000;2023-06-19T03:16:49;1.88;;;1.77;;
58992;SDS011;44782;0.000;0.000;2023-06-19T03:19:08;1.80;;;1.70;;
58992;SDS011;44782;0.000;0.000;2023-06-19T03:21:23;2.42;;;2.20;;
58992;SDS011;44782;0.000;0.000;2023-06-19T03:23:39;1.80;;;1.70;;
58992;SDS011;44782;0.000;0.000;2023-06-19T03:25:56;1.80;;;1.70;;
58992;SDS011;44782;0.000;0.000;2023-06-19T03:28:12;2.25;;;1.70;;
58992;SDS011;44782;0.000;0.000;2023-06-19T03:30:29;1.98;;;1.83;;
58992;SDS011;44782;0.000;0.000;2023-06-19T03:32:45;1.90;;;1.80;;
58992;SDS011;44782;0.000;0.000;2023-06-19T03:35:01;1.90;;;1.80;;
58992;SDS011;44782;0.000;0.000;2023-06-19T03:37:17;1.80;;;1.70;;
58992;SDS011;44782;0.000;0.000;2023-06-19T03:39:32;1.75;;;1.65;;
58992;SDS011;44782;0.000;0.000;2023-06-19T03:41:48;1.90;;;1.80;;
58992;SDS011;44782;0.000;0.000;2023-06-19T03:44:04;1.90;;;1.80;;
58992;SDS011;44782;0.000;0.000;2023-06-19T03:46:22;2.10;;;1.90;;
58992;SDS011;44782;0.000;0.000;2023-06-19T03:48:38;1.98;;;1.70;;
58992;SDS011;44782;0.000;0.000;2023-06-19T03:50:53;2.10;;;1.90;;
58992;SDS011;44782;0.000;0.000;2023-06-19T03:53:10;1.95;;;1.85;;
58992;SDS011;44782;0.000;0.000;2023-06-19T03:55:25;1.83;;;1.73;;
58992;SDS011;44782;0.000;0.000;2023-06-19T03:57:41;1.98;;;1.88;;
58992;SDS011;44782;0.000;0.000;2023-06-19T03:59:57;1.83;;;1.73;;
58992;SDS011;44782;0.000;0.000;2023-06-19T04:02:12;3.58;;;1.60;;
58992;SDS011;44782;0.000;0.000;2023-06-19T04:04:28;2.03;;;1.92;;
58992;SDS011;44782;0.000;0.000;2023-06-19T04:06:44;1.85;;;1.75;;
58992;SDS011;44782;0.000;0.000;2023-06-19T04:09:01;1.80;;;1.70;;
58992;SDS011;44782;0.000;0.000;2023-06-19T04:11:17;1.92;;;1.83;;
58992;SDS011;44782;0.000;0.000;2023-06-19T04:13:33;2.17;;;1.90;;
58992;SDS011;44782;0.000;0.000;2023-06-19T04:15:49;1.92;;;1.83;;
58992;SDS011;44782;0.000;0.000;2023-06-19T04:18:07;2.17;;;1.92;;
58992;SDS011;44782;0.000;0.000;2023-06-19T04:20:23;1.95;;;1.85;;
58992;SDS011;44782;0.000;0.000;2023-06-19T04:22:39;2.10;;;1.90;;
58992;SDS011;44782;0.000;0.000;2023-06-19T04:24:55;1.70;;;1.60;;
58992;SDS011;44782;0.000;0.000;2023-06-19T04:27:10;1.90;;;1.80;;
58992;SDS011;44782;0.000;0.000;2023-06-19T04:29:26;2.10;;;2.00;;
58992;SDS011;44782;0.000;0.000;2023-06-19T04:31:46;1.90;;;1.80;;
58992;SDS011;44782;0.000;0.000;2023-06-19T04:34:03;2.10;;;2.00;;
58992;SDS011;44782;0.000;0.000;2023-06-19T04:36:19;1.75;;;1.65;;
58992;SDS011;44782;0.000;0.000;2023-06-19T04:38:35;1.70;;;1.60;;
58992;SDS011;44782;0.000;0.000;2023-06-19T04:40:51;2.08;;;1.88;;
58992;SDS011;44782;0.000;0.000;2023-06-19T04:43:07;2.08;;;1.88;;
58992;SDS011;44782;0.000;0.000;2023-06-19T04:45:22;2.13;;;2.00;;
58992;SDS011;44782;0.000;0.000;2023-06-19T04:47:38;2.42;;;2.10;;
58992;SDS011;44782;0.000;0.000;2023-06-19T04:49:54;2.05;;;1.85;;
58992;SDS011;44782;0.000;0.000;2023-06-19T04:52:09;2.10;;;2.00;;
58992;SDS011;44782;0.000;0.000;2023-06-19T04:54:26;2.38;;;2.25;;
58992;SDS011;44782;0.000;0.000;2023-06-19T04:56:42;2.42;;;2.13;;
58992;SDS011;44782;0.000;0.000;2023-06-19T04:58:57;2.60;;;2.17;;
58992;SDS011;44782;0.000;0.000;2023-06-19T05:01:14;2.50;;;2.10;;
58992;SDS011;44782;0.000;0.000;2023-06-19T05:03:30;2.72;;;2.38;;
58992;SDS011;44782;0.000;0.000;2023-06-19T05:05:46;2.75;;;2.53;;
58992;SDS011;44782;0.000;0.000;2023-06-19T05:08:02;3.10;;;2.60;;
58992;SDS011;44782;0.000;0.000;2023-06-19T05:10:17;2.72;;;2.50;;
58992;SDS011;44782;0.000;0.000;2023-06-19T05:12:34;3.90;;;2.60;;
58992;SDS011;44782;0.000;0.000;2023-06-19T05:14:50;2.60;;;2.40;;
58992;SDS011;44782;0.000;0.000;2023-06-19T05:17:06;2.90;;;2.70;;
58992;SDS011;44782;0.000;0.000;2023-06-19T05:19:21;4.45;;;2.80;;
58992;SDS011;44782;0.000;0.000;2023-06-19T05:21:37;2.60;;;2.40;;
58992;SDS011;44782;0.000;0.000;2023-06-19T05:23:53;3.00;;;2.72;;
58992;SDS011;44782;0.000;0.000;2023-06-19T05:26:08;2.75;;;2.55;;
58992;SDS011;44782;0.000;0.000;2023-06-19T05:28:24;2.65;;;2.45;;
58992;SDS011;44782;0.000;0.000;2023-06-19T05:30:40;2.72;;;2.58;;
58992;SDS011;44782;0.000;0.000;2023-06-19T05:32:55;2.90;;;2.70;;
58992;SDS011;44782;0.000;0.000;2023-06-19T05:35:11;2.72;;;2.50;;
58992;SDS011;44782;0.000;0.000;2023-06-19T05:37:27;2.95;;;2.75;;
58992;SDS011;44782;0.000;0.000;2023-06-19T05:39:42;3.10;;;2.83;;
58992;SDS011;44782;0.000;0.000;2023-06-19T05:41:58;2.85;;;2.65;;
58992;SDS011;44782;0.000;0.000;2023-06-19T05:44:14;2.90;;;2.58;;
58992;SDS011;44782;0.000;0.000;2023-06-19T05:46:31;3.20;;;2.90;;
58992;SDS011;44782;0.000;0.000;2023-06-19T05:48:47;3.22;;;2.92;;
58992;SDS011;44782;0.000;0.000;2023-06-19T05:51:03;3.42;;;2.85;;
58992;SDS011;44782;0.000;0.000;2023-06-19T05:53:18;3.20;;;2.90;;
58992;SDS011;44782;0.000;0.000;2023-06-19T05:55:34;3.97;;;3.10;;
58992;SDS011;44782;0.000;0.000;2023-06-19T05:57:50;3.22;;;3.00;;
58992;SDS011;44782;0.000;0.000;2023-06-19T06:00:06;3.28;;;3.08;;
58992;SDS011;44782;0.000;0.000;2023-06-19T06:02:26;3.63;;;2.95;;
58992;SDS011;44782;0.000;0.000;2023-06-19T06:04:43;3.42;;;3.20;;
58992;SDS011;44782;0.000;0.000;2023-06-19T06:06:59;3.58;;;3.28;;
58992;SDS011;44782;0.000;0.000;2023-06-19T06:09:14;3.60;;;3.30;;
58992;SDS011;44782;0.000;0.000;2023-06-19T06:11:31;3.78;;;3.45;;
58992;SDS011;44782;0.000;0.000;2023-06-19T06:13:46;3.53;;;3.22;;
58992;SDS011;44782;0.000;0.000;2023-06-19T06:16:02;3.40;;;3.10;;
58992;SDS011;44782;0.000;0.000;2023-06-19T06:18:18;3.22;;;2.92;;
58992;SDS011;44782;0.000;0.000;2023-06-19T06:20:37;3.03;;;2.83;;
58992;SDS011;44782;0.000;0.000;2023-06-19T06:22:52;3.40;;;3.10;;
58992;SDS011;44782;0.000;0.000;2023-06-19T06:25:09;3.83;;;3.53;;
58992;SDS011;44782;0.000;0.000;2023-06-19T06:27:27;4.55;;;3.58;;
58992;SDS011;44782;0.000;0.000;2023-06-19T06:29:43;3.30;;;3.10;;
58992;SDS011;44782;0.000;0.000;2023-06-19T06:32:09;3.53;;;3.22;;
58992;SDS011;44782;0.000;0.000;2023-06-19T06:34:24;3.40;;;3.10;;
58992;SDS011;44782;0.000;0.000;2023-06-19T06:36:40;3.67;;;3.38;;
58992;SDS011;44782;0.000;0.000;2023-06-19T06:38:56;4.05;;;3.70;;
58992;SDS011;44782;0.000;0.000;2023-06-19T06:41:11;4.07;;;3.45;;
58992;SDS011;44782;0.000;0.000;2023-06-19T06:43:27;3.95;;;3.53;;
58992;SDS011;44782;0.000;0.000;2023-06-19T06:45:43;3.60;;;3.40;;
58992;SDS011;44782;0.000;0.000;2023-06-19T06:47:58;4.35;;;3.72;;
58992;SDS011;44782;0.000;0.000;2023-06-19T06:50:14;3.88;;;3.55;;
58992;SDS011;44782;0.000;0.000;2023-06-19T06:52:29;3.92;;;3.58;;
58992;SDS011;44782;0.000;0.000;2023-06-19T06:54:46;4.05;;;3.60;;
58992;SDS011;44782;0.000;0.000;2023-06-19T06:57:01;4.53;;;3.67;;
58992;SDS011;44782;0.000;0.000;2023-06-19T06:59:17;4.15;;;3.38;;
58992;SDS011;44782;0.000;0.000;2023-06-19T07:01:33;4.45;;;3.80;;
58992;SDS011;44782;0.000;0.000;2023-06-19T07:03:48;4.25;;;3.83;;
58992;SDS011;44782;0.000;0.000;2023-06-19T07:06:07;4.47;;;3.58;;
58992;SDS011;44782;0.000;0.000;2023-06-19T07:08:23;5.07;;;4.03;;
58992;SDS011;44782;0.000;0.000;2023-06-19T07:10:38;4.32;;;3.97;;
58992;SDS011;44782;0.000;0.000;2023-06-19T07:12:54;4.13;;;3.83;;
58992;SDS011;44782;0.000;0.000;2023-06-19T07:15:10;3.83;;;3.53;;
58992;SDS011;44782;0.000;0.000;2023-06-19T07:17:28;4.30;;;4.00;;
58992;SDS011;44782;0.000;0.000;2023-06-19T07:19:44;4.57;;;3.83;;
58992;SDS011;44782;0.000;0.000;2023-06-19T07:21:59;5.78;;;3.90;;
58992;SDS011;44782;0.000;0.000;2023-06-19T07:24:15;4.75;;;3.72;;
58992;SDS011;44782;0.000;0.000;2023-06-19T07:26:31;5.15;;;3.92;;
58992;SDS011;44782;0.000;0.000;2023-06-19T07:28:47;3.95;;;3.65;;
58992;SDS011;44782;0.000;0.000;2023-06-19T07:31:02;4.10;;;3.80;;
58992;SDS011;44782;0.000;0.000;2023-06-19T07:33:18;4.10;;;3.80;;
58992;SDS011;44782;0.000;0.000;2023-06-19T07:35:37;5.38;;;3.90;;
58992;SDS011;44782;0.000;0.000;2023-06-19T07:37:53;4.10;;;3.80;;
58992;SDS011;44782;0.000;0.000;2023-06-19T07:40:08;4.45;;;3.80;;
58992;SDS011;44782;0.000;0.000;2023-06-19T07:42:25;4.70;;;4.30;;
58992;SDS011;44782;0.000;0.000;2023-06-19T07:44:41;4.10;;;3.80;;
58992;SDS011;44782;0.000;0.000;2023-06-19T07:46:57;4.50;;;4.10;;
58992;SDS011;44782;0.000;0.000;2023-06-19T07:49:13;4.18;;;3.78;;
58992;SDS011;44782;0.000;0.000;2023-06-19T07:51:29;4.22;;;3.92;;
58992;SDS011;44782;0.000;0.000;2023-06-19T07:53:45;4.38;;;3.97;;
58992;SDS011;44782;0.000;0.000;2023-06-19T07:56:00;4.40;;;4.05;;
58992;SDS011;44782;0.000;0.000;2023-06-19T07:58:16;4.60;;;4.18;;
58992;SDS011;44782;0.000;0.000;2023-06-19T08:00:31;4.60;;;3.90;;
58992;SDS011;44782;0.000;0.000;2023-06-19T08:02:47;4.05;;;3.67;;
58992;SDS011;44782;0.000;0.000;2023-06-19T08:05:03;4.10;;;3.80;;
58992;SDS011;44782;0.000;0.000;2023-06-19T08:07:19;4.30;;;3.90;;
58992;SDS011;44782;0.000;0.000;2023-06-19T08:09:36;4.47;;;4.07;;
58992;SDS011;44782;0.000;0.000;2023-06-19T08:11:52;5.50;;;4.00;;
58992;SDS011;44782;0.000;0.000;2023-06-19T08:14:08;4.22;;;3.83;;
58992;SDS011;44782;0.000;0.000;2023-06-19T08:16:24;4.15;;;3.75;;
58992;SDS011;44782;0.000;0.000;2023-06-19T08:18:41;3.92;;;3.55;;
58992;SDS011;44782;0.000;0.000;2023-06-19T08:20:58;4.45;;;3.95;;
58992;SDS011;44782;0.000;0.000;2023-06-19T08:23:14;4.00;;;3.70;;
58992;SDS011;44782;0.000;0.000;2023-06-19T08:25:29;4.10;;;3.80;;
58992;SDS011;44782;0.000;0.000;2023-06-19T08:27:45;5.00;;;3.78;;
58992;SDS011;44782;0.000;0.000;2023-06-19T08:30:00;4.15;;;3.85;;
58992;SDS011;44782;0.000;0.000;2023-06-19T08:32:16;4.15;;;3.85;;
58992;SDS011;44782;0.000;0.000;2023-06-19T08:34:32;4.07;;;3.78;;
58992;SDS011;44782;0.000;0.000;2023-06-19T08:37:00;4.03;;;3.67;;
58992;SDS011;44782;0.000;0.000;2023-06-19T08:39:16;4.38;;;4.07;;
58992;SDS011;44782;0.000;0.000;2023-06-19T08:41:31;4.10;;;3.70;;
58992;SDS011;44782;0.000;0.000;2023-06-19T08:43:50;4.30;;;3.92;;
58992;SDS011;44782;0.000;0.000;2023-06-19T08:46:14;4.38;;;3.97;;
58992;SDS011;44782;0.000;0.000;2023-06-19T08:48:34;5.60;;;4.30;;
58992;SDS011;44782;0.000;0.000;2023-06-19T08:50:52;4.45;;;4.05;;
58992;SDS011;44782;0.000;0.000;2023-06-19T08:53:11;5.80;;;4.07;;
58992;SDS011;44782;0.000;0.000;2023-06-19T08:55:26;4.80;;;4.05;;
58992;SDS011;44782;0.000;0.000;2023-06-19T08:57:44;4.43;;;4.05;;
58992;SDS011;44782;0.000;0.000;2023-06-19T09:00:04;4.40;;;4.00;;
58992;SDS011;44782;0.000;0.000;2023-06-19T09:02:22;4.15;;;3.83;;
58992;SDS011;44782;0.000;0.000;2023-06-19T09:04:42;4.22;;;3.88;;
58992;SDS011;44782;0.000;0.000;2023-06-19T09:06:59;4.47;;;4.10;;
58992;SDS011;44782;0.000;0.000;2023-06-19T09:09:18;4.40;;;4.00;;
58992;SDS011;44782;0.000;0.000;2023-06-19T09:11:35;3.90;;;3.60;;
58992;SDS011;44782;0.000;0.000;2023-06-19T09:13:57;4.68;;;4.03;;
58992;SDS011;44782;0.000;0.000;2023-06-19T09:16:16;4.43;;;4.03;;
58992;SDS011;44782;0.000;0.000;2023-06-19T09:18:41;4.07;;;3.67;;
58992;SDS011;44782;0.000;0.000;2023-06-19T09:20:58;4.60;;;4.20;;
58992;SDS011;44782;0.000;0.000;2023-06-19T09:23:14;4.70;;;4.32;;
58992;SDS011;44782;0.000;0.000;2023-06-19T09:25:29;4.50;;;4.20;;
58992;SDS011;44782;0.000;0.000;2023-06-19T09:27:45;4.43;;;4.03;;
58992;SDS011;44782;0.000;0.000;2023-06-19T09:30:01;4.47;;;4.10;;
58992;SDS011;44782;0.000;0.000;2023-06-19T09:32:25;4.63;;;3.83;;
58992;SDS011;44782;0.000;0.000;2023-06-19T09:34:43;4.40;;;3.78;;
58992;SDS011;44782;0.000;0.000;2023-06-19T09:36:58;4.68;;;4.13;;
58992;SDS011;44782;0.000;0.000;2023-06-19T09:39:14;3.97;;;3.67;;
58992;SDS011;44782;0.000;0.000;2023-06-19T09:41:31;4.15;;;3.85;;
58992;SDS011;44782;0.000;0.000;2023-06-19T09:43:54;3.95;;;3.65;;
58992;SDS011;44782;0.000;0.000;2023-06-19T09:46:15;3.78;;;3.47;;
58992;SDS011;44782;0.000;0.000;2023-06-19T09:48:34;4.40;;;3.92;;
58992;SDS011;44782;0.000;0.000;2023-06-19T09:51:19;4.32;;;4.03;;
58992;SDS011;44782;0.000;0.000;2023-06-19T09:53:33;4.10;;;3.70;;
58992;SDS011;44782;0.000;0.000;2023-06-19T09:55:52;4.00;;;3.65;;
58992;SDS011;44782;0.000;0.000;2023-06-19T09:58:11;4.20;;;3.80;;
58992;SDS011;44782;0.000;0.000;2023-06-19T10:02:45;4.50;;;3.90;;
58992;SDS011;44782;0.000;0.000;2023-06-19T10:05:02;5.70;;;3.97;;
58992;SDS011;44782;0.000;0.000;2023-06-19T10:07:20;4.25;;;3.95;;
58992;SDS011;44782;0.000;0.000;2023-06-19T10:09:54;4.07;;;3.78;;
58992;SDS011;44782;0.000;0.000;2023-06-19T10:12:33;4.32;;;3.92;;
58992;SDS011;44782;0.000;0.000;2023-06-19T10:14:56;4.20;;;3.90;;
58992;SDS011;44782;0.000;0.000;2023-06-19T10:17:12;3.90;;;3.60;;
58992;SDS011;44782;0.000;0.000;2023-06-19T10:19:27;4.07;;;3.72;;
58992;SDS011;44782;0.000;0.000;2023-06-19T10:21:44;3.78;;;3.47;;
58992;SDS011;44782;0.000;0.000;2023-06-19T10:24:13;3.70;;;3.50;;
58992;SDS011;44782;0.000;0.000;2023-06-19T10:28:47;4.60;;;4.20;;
58992;SDS011;44782;0.000;0.000;2023-06-19T10:31:05;4.00;;;3.67;;
58992;SDS011;44782;0.000;0.000;2023-06-19T10:33:25;4.00;;;3.70;;
58992;SDS011;44782;0.000;0.000;2023-06-19T10:35:43;3.90;;;3.60;;
58992;SDS011;44782;0.000;0.000;2023-06-19T10:37:58;3.88;;;3.58;;
58992;SDS011;44782;0.000;0.000;2023-06-19T10:40:14;3.95;;;3.65;;
58992;SDS011;44782;0.000;0.000;2023-06-19T10:42:30;3.75;;;3.50;;
58992;SDS011;44782;0.000;0.000;2023-06-19T10:44:46;4.10;;;3.80;;
58992;SDS011;44782;0.000;0.000;2023-06-19T10:47:02;3.80;;;3.50;;
58992;SDS011;44782;0.000;0.000;2023-06-19T10:49:18;3.92;;;3.58;;
58992;SDS011;44782;0.000;0.000;2023-06-19T10:51:34;3.72;;;3.47;;
58992;SDS011;44782;0.000;0.000;2023-06-19T10:53:58;3.60;;;3.40;;
58992;SDS011;44782;0.000;0.000;2023-06-19T10:56:14;4.10;;;3.70;;
58992;SDS011;44782;0.000;0.000;2023-06-19T10:58:29;4.05;;;3.75;;
58992;SDS011;44782;0.000;0.000;2023-06-19T11:00:45;3.70;;;3.50;;
58992;SDS011;44782;0.000;0.000;2023-06-19T11:03:01;3.85;;;3.55;;
58992;SDS011;44782;0.000;0.000;2023-06-19T11:05:19;3.92;;;3.63;;
58992;SDS011;44782;0.000;0.000;2023-06-19T11:07:35;3.70;;;3.40;;
58992;SDS011;44782;0.000;0.000;2023-06-19T11:09:51;3.70;;;3.40;;
58992;SDS011;44782;0.000;0.000;2023-06-19T11:12:06;3.83;;;3.53;;
58992;SDS011;44782;0.000;0.000;2023-06-19T11:14:23;3.85;;;3.55;;
58992;SDS011;44782;0.000;0.000;2023-06-19T11:16:47;4.10;;;3.80;;
58992;SDS011;44782;0.000;0.000;2023-06-19T11:19:03;3.60;;;3.40;;
58992;SDS011;44782;0.000;0.000;2023-06-19T11:21:18;3.80;;;3.50;;
58992;SDS011;44782;0.000;0.000;2023-06-19T11:23:34;3.75;;;3.55;;
58992;SDS011;44782;0.000;0.000;2023-06-19T11:26:01;4.00;;;3.70;;
58992;SDS011;44782;0.000;0.000;2023-06-19T11:28:20;3.92;;;3.65;;
58992;SDS011;44782;0.000;0.000;2023-06-19T11:30:37;3.60;;;3.40;;
58992;SDS011;44782;0.000;0.000;2023-06-19T11:32:52;3.70;;;3.50;;
58992;SDS011;44782;0.000;0.000;2023-06-19T11:35:09;3.47;;;3.28;;
58992;SDS011;44782;0.000;0.000;2023-06-19T11:37:29;3.70;;;3.40;;
58992;SDS011;44782;0.000;0.000;2023-06-19T11:39:45;3.60;;;3.38;;
58992;SDS011;44782;0.000;0.000;2023-06-19T11:42:01;3.70;;;3.40;;
58992;SDS011;44782;0.000;0.000;2023-06-19T11:44:17;3.45;;;3.25;;
58992;SDS011;44782;0.000;0.000;2023-06-19T11:46:33;4.00;;;3.70;;
58992;SDS011;44782;0.000;0.000;2023-06-19T11:48:52;4.00;;;3.75;;
58992;SDS011;44782;0.000;0.000;2023-06-19T11:51:08;3.80;;;3.50;;
58992;SDS011;44782;0.000;0.000;2023-06-19T11:53:24;3.72;;;3.53;;
58992;SDS011;44782;0.000;0.000;2023-06-19T11:55:40;3.70;;;3.40;;
58992;SDS011;44782;0.000;0.000;2023-06-19T11:57:56;3.78;;;3.47;;
58992;SDS011;44782;0.000;0.000;2023-06-19T12:00:12;3.95;;;3.65;;
58992;SDS011;44782;0.000;0.000;2023-06-19T12:02:32;3.72;;;3.42;;
58992;SDS011;44782;0.000;0.000;2023-06-19T12:04:48;3.67;;;3.40;;
58992;SDS011;44782;0.000;0.000;2023-06-19T12:07:03;4.13;;;3.83;;
58992;SDS011;44782;0.000;0.000;2023-06-19T12:09:20;3.95;;;3.65;;
58992;SDS011;44782;0.000;0.000;2023-06-19T12:11:35;3.58;;;3.38;;
58992;SDS011;44782;0.000;0.000;2023-06-19T12:13:51;3.95;;;3.55;;
58992;SDS011;44782;0.000;0.000;2023-06-19T12:16:09;3.78;;;3.50;;
58992;SDS011;44782;0.000;0.000;2023-06-19T12:18:28;3.58;;;3.38;;
58992;SDS011;44782;0.000;0.000;2023-06-19T12:20:44;4.10;;;3.80;;
58992;SDS011;44782;0.000;0.000;2023-06-19T12:22:59;3.70;;;3.50;;
58992;SDS011;44782;0.000;0.000;2023-06-19T12:25:15;4.05;;;3.78;;
58992;SDS011;44782;0.000;0.000;2023-06-19T12:27:31;3.88;;;3.58;;
58992;SDS011;44782;0.000;0.000;2023-06-19T12:29:46;3.90;;;3.60;;
58992;SDS011;44782;0.000;0.000;2023-06-19T12:32:02;3.78;;;3.58;;
58992;SDS011;44782;0.000;0.000;2023-06-19T12:34:18;4.03;;;3.72;;
58992;SDS011;44782;0.000;0.000;2023-06-19T12:36:34;4.03;;;3.72;;
58992;SDS011;44782;0.000;0.000;2023-06-19T12:38:52;4.03;;;3.72;;
58992;SDS011;44782;0.000;0.000;2023-06-19T12:41:08;3.90;;;3.60;;
58992;SDS011;44782;0.000;0.000;2023-06-19T12:43:24;3.40;;;3.20;;
58992;SDS011;44782;0.000;0.000;2023-06-19T12:45:40;3.55;;;3.35;;
58992;SDS011;44782;0.000;0.000;2023-06-19T12:47:56;3.75;;;3.55;;
58992;SDS011;44782;0.000;0.000;2023-06-19T12:50:12;3.95;;;3.65;;
58992;SDS011;44782;0.000;0.000;2023-06-19T12:52:27;4.07;;;3.78;;
58992;SDS011;44782;0.000;0.000;2023-06-19T12:54:43;3.83;;;3.63;;
58992;SDS011;44782;0.000;0.000;2023-06-19T12:56:59;3.42;;;3.22;;
58992;SDS011;44782;0.000;0.000;2023-06-19T12:59:14;3.50;;;3.30;;
58992;SDS011;44782;0.000;0.000;2023-06-19T13:01:30;3.90;;;3.60;;
58992;SDS011;44782;0.000;0.000;2023-06-19T13:03:46;4.25;;;3.85;;
58992;SDS011;44782;0.000;0.000;2023-06-19T13:06:02;4.15;;;3.85;;
58992;SDS011;44782;0.000;0.000;2023-06-19T13:08:17;4.22;;;3.92;;
58992;SDS011;44782;0.000;0.000;2023-06-19T13:10:33;3.97;;;3.67;;
58992;SDS011;44782;0.000;0.000;2023-06-19T13:12:49;4.38;;;3.97;;
58992;SDS011;44782;0.000;0.000;2023-06-19T13:15:07;3.67;;;3.45;;
58992;SDS011;44782;0.000;0.000;2023-06-19T13:17:24;3.55;;;3.35;;
58992;SDS011;44782;0.000;0.000;2023-06-19T13:19:40;4.10;;;3.80;;
58992;SDS011;44782;0.000;0.000;2023-06-19T13:21:55;4.10;;;3.80;;
58992;SDS011;44782;0.000;0.000;2023-06-19T13:24:11;3.85;;;3.65;;
58992;SDS011;44782;0.000;0.000;2023-06-19T13:26:27;3.33;;;3.13;;
58992;SDS011;44782;0.000;0.000;2023-06-19T13:28:42;3.97;;;3.67;;
58992;SDS011;44782;0.000;0.000;2023-06-19T13:30:58;4.43;;;4.10;;
58992;SDS011;44782;0.000;0.000;2023-06-19T13:33:15;3.85;;;3.55;;
58992;SDS011;44782;0.000;0.000;2023-06-19T13:35:31;4.00;;;3.63;;
58992;SDS011;44782;0.000;0.000;2023-06-19T13:37:47;3.88;;;3.67;;
58992;SDS011;44782;0.000;0.000;2023-06-19T13:40:03;4.07;;;3.88;;
58992;SDS011;44782;0.000;0.000;2023-06-19T13:42:19;4.00;;;3.70;;
58992;SDS011;44782;0.000;0.000;2023-06-19T13:44:37;4.00;;;3.70;;
58992;SDS011;44782;0.000;0.000;2023-06-19T13:46:53;4.28;;;3.97;;
58992;SDS011;44782;0.000;0.000;2023-06-19T13:49:09;4.43;;;4.05;;
58992;SDS011;44782;0.000;0.000;2023-06-19T13:51:26;3.90;;;3.60;;
58992;SDS011;44782;0.000;0.000;2023-06-19T13:53:41;4.10;;;3.80;;
58992;SDS011;44782;0.000;0.000;2023-06-19T13:55:57;3.67;;;3.38;;
58992;SDS011;44782;0.000;0.000;2023-06-19T13:58:13;4.20;;;3.90;;
58992;SDS011;44782;0.000;0.000;2023-06-19T14:00:28;4.57;;;4.22;;
58992;SDS011;44782;0.000;0.000;2023-06-19T14:02:44;4.00;;;3.70;;